Time;durP1;ratioP1;P1;durP2;ratioP2;P2;SDS_P1;SDS_P2;PMS_P1;PMS_P2;Temp;Humidity;BMP_temperature;BMP_pressure;BME280_temperature;BME280_humidity;BME280_pressure;Samples;Min_cycle;Max_cycle;Signal;HPM_P1;HPM_P2
2022/06/28 00:00:31;;;;;;;4.32;1.38;;;;;;;;;;5042266;28;20121;-77
2022/06/28 00:02:57;;;;;;;4.57;1.30;;;;;;;;;;5036293;28;20029;-76
2022/06/28 00:05:23;;;;;;;5.60;1.70;;;;;;;;;;5036964;28;20487;-77
2022/06/28 00:07:49;;;;;;;5.97;1.48;;;;;;;;;;5019680;28;20033;-77
2022/06/28 00:10:16;;;;;;;8.40;2.00;;;;;;;;;;5045342;28;20037;-76
2022/06/28 00:12:42;;;;;;;5.93;1.95;;;;;;;;;;5032694;28;20544;-77
2022/06/28 00:17:54;;;;;;;6.30;1.67;;;;;;;;;;5035826;28;20064;-77
2022/06/28 00:20:20;;;;;;;6.88;1.23;;;;;;;;;;5040371;28;20048;-76
2022/06/28 00:22:46;;;;;;;3.25;1.00;;;;;;;;;;5040791;28;20474;-77
2022/06/28 00:25:12;;;;;;;8.90;4.43;;;;;;;;;;5035775;28;20033;-77
2022/06/28 00:27:39;;;;;;;7.68;3.25;;;;;;;;;;5027957;28;20624;-76
2022/06/28 00:30:05;;;;;;;6.05;1.50;;;;;;;;;;5039768;28;20048;-76
2022/06/28 00:32:32;;;;;;;2.28;1.00;;;;;;;;;;5046614;28;20025;-76
2022/06/28 00:34:59;;;;;;;4.78;1.50;;;;;;;;;;5041059;28;20037;-76
2022/06/28 00:37:25;;;;;;;5.07;1.50;;;;;;;;;;5028164;28;20029;-76
2022/06/28 00:39:51;;;;;;;7.05;1.48;;;;;;;;;;5039892;28;20036;-76
2022/06/28 00:42:17;;;;;;;6.53;1.33;;;;;;;;;;5041014;28;20033;-77
2022/06/28 00:44:43;;;;;;;4.43;1.20;;;;;;;;;;5043356;28;20039;-77
2022/06/28 00:47:09;;;;;;;2.13;1.05;;;;;;;;;;5042953;28;20040;-77
2022/06/28 00:49:39;;;;;;;5.47;1.35;;;;;;;;;;5043649;28;20033;-76
2022/06/28 00:52:06;;;;;;;4.70;1.65;;;;;;;;;;5020349;28;20520;-77
2022/06/28 00:54:32;;;;;;;7.95;1.40;;;;;;;;;;5048490;28;20032;-76
2022/06/28 00:56:58;;;;;;;10.13;2.15;;;;;;;;;;5032262;28;20029;-76
2022/06/28 00:59:24;;;;;;;5.50;1.42;;;;;;;;;;5047954;28;20028;-77
2022/06/28 01:01:50;;;;;;;5.90;1.90;;;;;;;;;;5034018;28;20120;-76
2022/06/28 01:04:16;;;;;;;6.25;1.83;;;;;;;;;;5038500;28;20033;-76
2022/06/28 01:06:42;;;;;;;6.68;1.55;;;;;;;;;;5033741;28;20037;-77
2022/06/28 01:09:09;;;;;;;6.68;2.42;;;;;;;;;;5045052;28;20082;-77
2022/06/28 01:11:35;;;;;;;8.68;3.75;;;;;;;;;;5036307;28;20049;-76
2022/06/28 01:14:08;;;;;;;8.48;4.00;;;;;;;;;;5040246;28;20070;-76
2022/06/28 01:16:34;;;;;;;8.02;4.72;;;;;;;;;;5047190;28;20039;-77
2022/06/28 01:19:01;;;;;;;5.35;1.85;;;;;;;;;;5043201;28;20037;-76
2022/06/28 01:21:28;;;;;;;5.43;1.25;;;;;;;;;;5039013;28;20108;-76
2022/06/28 01:23:54;;;;;;;6.10;1.65;;;;;;;;;;5026924;28;20033;-76
2022/06/28 01:26:20;;;;;;;4.00;1.00;;;;;;;;;;5033706;28;20490;-77
2022/06/28 01:28:47;;;;;;;5.72;1.30;;;;;;;;;;5045482;28;20032;-76
2022/06/28 01:31:14;;;;;;;3.45;1.35;;;;;;;;;;5035821;28;20176;-76
2022/06/28 01:33:40;;;;;;;4.32;1.17;;;;;;;;;;5043704;28;20117;-76
2022/06/28 01:36:07;;;;;;;2.78;1.08;;;;;;;;;;5037568;28;20111;-76
2022/06/28 01:38:33;;;;;;;9.13;2.10;;;;;;;;;;5048313;28;20040;-76
2022/06/28 01:40:59;;;;;;;5.72;1.77;;;;;;;;;;5039309;28;20403;-76
2022/06/28 01:43:26;;;;;;;6.22;2.28;;;;;;;;;;5038256;28;20061;-76
2022/06/28 01:45:53;;;;;;;6.70;1.58;;;;;;;;;;5041266;28;20379;-76
2022/06/28 01:48:19;;;;;;;6.68;2.00;;;;;;;;;;5041258;28;20066;-75
2022/06/28 01:50:45;;;;;;;8.63;1.50;;;;;;;;;;5039130;28;20111;-76
2022/06/28 01:53:11;;;;;;;2.78;1.38;;;;;;;;;;5039696;28;20120;-76
2022/06/28 01:55:37;;;;;;;3.70;1.10;;;;;;;;;;5039725;28;20584;-76
2022/06/28 01:58:04;;;;;;;6.97;1.35;;;;;;;;;;5030848;28;20466;-76
2022/06/28 02:00:30;;;;;;;5.72;1.60;;;;;;;;;;5046622;28;20036;-76
2022/06/28 02:02:56;;;;;;;6.03;1.38;;;;;;;;;;5047171;28;20533;-76
2022/06/28 02:05:22;;;;;;;3.55;1.40;;;;;;;;;;5034215;28;20029;-76
2022/06/28 02:07:49;;;;;;;11.18;1.70;;;;;;;;;;5038887;28;20033;-76
2022/06/28 02:10:16;;;;;;;7.03;1.70;;;;;;;;;;5045473;28;20033;-76
2022/06/28 02:12:42;;;;;;;6.82;1.50;;;;;;;;;;5042025;28;20025;-76
2022/06/28 02:15:08;;;;;;;7.95;1.40;;;;;;;;;;5046567;28;20033;-77
2022/06/28 02:17:34;;;;;;;5.20;1.50;;;;;;;;;;5044733;28;20702;-76
2022/06/28 02:20:00;;;;;;;5.25;1.77;;;;;;;;;;5048332;28;20095;-76
2022/06/28 02:22:26;;;;;;;4.53;1.40;;;;;;;;;;5029497;28;20422;-76
2022/06/28 02:24:52;;;;;;;7.25;1.33;;;;;;;;;;5040550;28;20032;-77
2022/06/28 02:27:18;;;;;;;3.25;1.40;;;;;;;;;;5039539;28;20109;-76
2022/06/28 02:29:44;;;;;;;9.45;1.85;;;;;;;;;;5036606;28;20017;-76
2022/06/28 02:32:11;;;;;;;4.75;1.35;;;;;;;;;;5038614;28;20425;-77
2022/06/28 02:40:23;;;;;;;4.95;1.70;;;;;;;;;;5039992;28;20052;-77
2022/06/28 02:42:53;;;;;;;10.52;2.53;;;;;;;;;;5043585;28;20625;-77
2022/06/28 02:45:20;;;;;;;11.98;2.92;;;;;;;;;;5015041;28;20038;-77
2022/06/28 02:47:46;;;;;;;6.28;2.25;;;;;;;;;;5040191;28;20459;-77
2022/06/28 02:50:13;;;;;;;6.20;2.05;;;;;;;;;;5045791;28;20436;-77
2022/06/28 02:52:39;;;;;;;9.27;2.13;;;;;;;;;;5044033;28;20419;-77
2022/06/28 02:55:06;;;;;;;6.50;2.53;;;;;;;;;;5043445;28;20075;-76
2022/06/28 02:57:32;;;;;;;8.77;2.28;;;;;;;;;;5047402;28;20028;-77
2022/06/28 02:59:58;;;;;;;4.97;1.63;;;;;;;;;;5044731;28;20039;-77
2022/06/28 03:02:24;;;;;;;9.05;1.70;;;;;;;;;;5044038;28;20079;-77
2022/06/28 03:04:50;;;;;;;5.75;1.85;;;;;;;;;;5040356;28;20040;-77
2022/06/28 03:07:16;;;;;;;9.90;1.95;;;;;;;;;;5032908;28;20044;-77
2022/06/28 03:09:42;;;;;;;10.20;2.50;;;;;;;;;;5048873;28;20021;-77
2022/06/28 03:12:09;;;;;;;6.43;1.75;;;;;;;;;;5039055;28;20485;-77
2022/06/28 03:14:35;;;;;;;6.20;2.10;;;;;;;;;;5045801;28;20025;-77
2022/06/28 03:17:01;;;;;;;8.82;1.73;;;;;;;;;;5036229;28;20356;-76
2022/06/28 03:19:27;;;;;;;7.80;2.15;;;;;;;;;;5039317;28;20640;-76
2022/06/28 03:21:53;;;;;;;6.65;1.75;;;;;;;;;;5043794;28;20380;-76
2022/06/28 03:24:19;;;;;;;5.35;1.90;;;;;;;;;;5033328;28;20068;-77
2022/06/28 03:26:45;;;;;;;4.32;1.40;;;;;;;;;;5044440;28;20454;-77
2022/06/28 03:29:11;;;;;;;6.82;1.50;;;;;;;;;;5041934;28;20124;-77
2022/06/28 03:31:37;;;;;;;8.68;1.60;;;;;;;;;;5021625;28;20075;-77
2022/06/28 03:34:03;;;;;;;7.10;1.90;;;;;;;;;;5040038;28;20026;-76
2022/06/28 03:36:29;;;;;;;7.85;2.03;;;;;;;;;;5038918;28;20042;-77
2022/06/28 03:38:55;;;;;;;6.30;1.80;;;;;;;;;;5040228;28;20017;-76
2022/06/28 03:41:24;;;;;;;5.28;1.85;;;;;;;;;;5043907;28;20422;-77
2022/06/28 03:43:51;;;;;;;7.90;1.95;;;;;;;;;;5040870;28;20025;-77
2022/06/28 03:46:17;;;;;;;9.35;2.30;;;;;;;;;;5040133;28;20110;-76
2022/06/28 03:48:43;;;;;;;9.65;2.65;;;;;;;;;;5013682;28;20033;-77
2022/06/28 03:51:09;;;;;;;6.80;2.65;;;;;;;;;;5043691;28;20040;-77
2022/06/28 03:53:35;;;;;;;10.52;2.53;;;;;;;;;;5046932;28;20036;-76
2022/06/28 03:56:02;;;;;;;7.78;2.70;;;;;;;;;;5042971;28;20112;-76
2022/06/28 03:58:28;;;;;;;8.02;3.08;;;;;;;;;;5037780;28;20029;-77
2022/06/28 04:00:54;;;;;;;10.60;2.70;;;;;;;;;;5047078;28;20083;-77
2022/06/28 04:03:20;;;;;;;10.55;2.30;;;;;;;;;;5040644;28;20414;-76
2022/06/28 04:05:46;;;;;;;11.30;2.75;;;;;;;;;;5037044;28;20421;-77
2022/06/28 04:08:12;;;;;;;8.77;3.05;;;;;;;;;;5034997;28;20586;-78
2022/06/28 04:10:38;;;;;;;7.30;2.58;;;;;;;;;;5035813;28;20466;-76
2022/06/28 04:13:04;;;;;;;9.13;4.05;;;;;;;;;;5044138;28;20112;-77
2022/06/28 04:15:30;;;;;;;10.18;3.08;;;;;;;;;;5040438;28;20105;-77
2022/06/28 04:17:56;;;;;;;8.73;3.22;;;;;;;;;;5045263;28;20037;-76
2022/06/28 04:20:22;;;;;;;9.30;3.42;;;;;;;;;;5050481;28;20051;-76
2022/06/28 04:22:48;;;;;;;9.27;3.13;;;;;;;;;;5048432;28;20521;-77
2022/06/28 04:25:14;;;;;;;9.80;3.53;;;;;;;;;;5036919;28;20068;-76
2022/06/28 04:27:41;;;;;;;16.25;2.75;;;;;;;;;;5039671;28;20029;-77
2022/06/28 04:30:07;;;;;;;9.20;3.00;;;;;;;;;;5042421;28;21027;-77
2022/06/28 04:32:33;;;;;;;10.07;2.70;;;;;;;;;;5038037;28;20761;-77
2022/06/28 04:35:00;;;;;;;7.22;3.10;;;;;;;;;;5048160;28;20029;-77
2022/06/28 04:37:26;;;;;;;12.13;3.13;;;;;;;;;;5039821;28;20040;-77
2022/06/28 04:39:52;;;;;;;8.52;2.88;;;;;;;;;;5032828;28;20025;-77
2022/06/28 04:42:18;;;;;;;7.35;2.75;;;;;;;;;;5049828;28;20429;-77
2022/06/28 04:44:44;;;;;;;15.45;3.20;;;;;;;;;;5039035;28;20059;-77
2022/06/28 04:47:10;;;;;;;10.73;2.72;;;;;;;;;;5044962;28;20041;-77
2022/06/28 04:49:37;;;;;;;12.00;3.17;;;;;;;;;;5043650;28;20071;-77
2022/06/28 04:52:03;;;;;;;5.97;2.45;;;;;;;;;;5039025;28;20138;-77
2022/06/28 04:54:29;;;;;;;12.30;2.65;;;;;;;;;;5045802;28;20521;-77
2022/06/28 04:56:55;;;;;;;9.80;3.95;;;;;;;;;;5042570;28;20033;-77
2022/06/28 04:59:21;;;;;;;10.20;3.60;;;;;;;;;;5048664;28;20429;-77
2022/06/28 05:01:48;;;;;;;11.10;3.42;;;;;;;;;;5047357;28;20493;-77
2022/06/28 05:04:14;;;;;;;11.15;3.30;;;;;;;;;;5051090;28;20033;-77
2022/06/28 05:06:40;;;;;;;12.63;3.15;;;;;;;;;;5036031;28;20045;-77
2022/06/28 05:09:06;;;;;;;10.50;2.88;;;;;;;;;;5043767;28;20036;-77
2022/06/28 05:11:32;;;;;;;9.13;2.83;;;;;;;;;;5040029;28;20037;-77
2022/06/28 05:14:01;;;;;;;10.05;3.47;;;;;;;;;;5047029;28;20048;-76
2022/06/28 05:16:27;;;;;;;7.13;2.83;;;;;;;;;;5040771;28;20120;-77
2022/06/28 05:18:53;;;;;;;9.27;3.13;;;;;;;;;;5033317;28;20021;-77
2022/06/28 05:21:19;;;;;;;13.85;3.55;;;;;;;;;;5038329;28;20068;-77
2022/06/28 05:23:45;;;;;;;12.52;2.65;;;;;;;;;;5042048;28;20703;-77
2022/06/28 05:26:11;;;;;;;9.93;3.13;;;;;;;;;;5041334;28;20116;-77
2022/06/28 05:28:37;;;;;;;19.60;6.88;;;;;;;;;;5041604;28;20026;-77
2022/06/28 05:31:03;;;;;;;10.93;5.35;;;;;;;;;;5036721;28;20152;-77
2022/06/28 05:33:30;;;;;;;12.93;5.78;;;;;;;;;;5020182;28;20649;-77
2022/06/28 05:35:56;;;;;;;9.82;4.30;;;;;;;;;;5037621;28;20028;-77
2022/06/28 05:38:22;;;;;;;15.88;3.85;;;;;;;;;;5042693;28;20083;-77
2022/06/28 05:40:48;;;;;;;13.95;3.72;;;;;;;;;;5035830;28;20140;-77
2022/06/28 05:43:14;;;;;;;11.23;3.30;;;;;;;;;;5039123;28;20564;-77
2022/06/28 05:45:40;;;;;;;12.13;3.28;;;;;;;;;;5048791;28;20036;-77
2022/06/28 05:48:07;;;;;;;10.05;3.13;;;;;;;;;;5037733;28;20033;-77
2022/06/28 05:50:33;;;;;;;9.48;3.60;;;;;;;;;;5045415;28;20463;-77
2022/06/28 05:52:59;;;;;;;10.05;3.03;;;;;;;;;;5041331;28;20029;-77
2022/06/28 05:55:25;;;;;;;8.23;3.10;;;;;;;;;;5043585;28;20655;-78
2022/06/28 05:57:51;;;;;;;10.57;2.72;;;;;;;;;;5039515;28;20052;-77
2022/06/28 06:00:18;;;;;;;10.00;2.85;;;;;;;;;;5042095;28;20092;-77
2022/06/28 06:02:44;;;;;;;8.85;2.95;;;;;;;;;;5042728;28;20021;-77
2022/06/28 06:05:11;;;;;;;6.13;1.95;;;;;;;;;;5038925;28;20116;-77
2022/06/28 06:07:37;;;;;;;8.75;2.28;;;;;;;;;;5046119;28;20024;-77
2022/06/28 06:10:03;;;;;;;8.05;2.13;;;;;;;;;;5032030;28;20080;-77
2022/06/28 06:12:29;;;;;;;5.93;1.98;;;;;;;;;;5042487;28;20047;-77
2022/06/28 06:14:55;;;;;;;6.95;2.20;;;;;;;;;;5041795;28;20025;-77
2022/06/28 06:17:21;;;;;;;8.15;2.95;;;;;;;;;;5038609;28;20048;-78
2022/06/28 06:19:48;;;;;;;7.35;2.72;;;;;;;;;;5045139;28;20028;-77
2022/06/28 06:22:14;;;;;;;12.88;3.78;;;;;;;;;;5044557;28;20032;-78
2022/06/28 06:24:40;;;;;;;10.05;2.50;;;;;;;;;;5047906;28;20528;-78
2022/06/28 06:27:06;;;;;;;10.55;2.22;;;;;;;;;;5042020;28;20041;-78
2022/06/28 06:29:32;;;;;;;5.63;1.77;;;;;;;;;;5045113;28;20029;-77
2022/06/28 06:31:58;;;;;;;8.05;1.83;;;;;;;;;;5043488;28;20048;-77
2022/06/28 06:34:24;;;;;;;5.47;1.80;;;;;;;;;;5043699;28;20029;-78
2022/06/28 06:36:50;;;;;;;8.57;1.98;;;;;;;;;;5045662;28;20770;-77
2022/06/28 06:39:16;;;;;;;4.30;1.45;;;;;;;;;;5041592;28;20021;-77
2022/06/28 06:41:43;;;;;;;4.95;1.73;;;;;;;;;;5039753;28;20034;-77
2022/06/28 06:44:09;;;;;;;9.45;1.90;;;;;;;;;;5034271;28;20483;-78
2022/06/28 06:46:36;;;;;;;6.18;1.27;;;;;;;;;;5044116;28;20044;-78
2022/06/28 06:49:02;;;;;;;2.55;1.40;;;;;;;;;;5037384;28;20784;-77
2022/06/28 06:51:30;;;;;;;4.65;1.38;;;;;;;;;;5046917;28;20258;-77
2022/06/28 06:53:57;;;;;;;6.05;1.40;;;;;;;;;;5051439;28;20018;-77
2022/06/28 06:56:23;;;;;;;7.30;1.48;;;;;;;;;;5039356;28;20112;-78
2022/06/28 06:58:49;;;;;;;13.45;2.78;;;;;;;;;;5050194;28;20143;-78
2022/06/28 07:01:15;;;;;;;6.82;2.92;;;;;;;;;;5020016;28;20086;-77
2022/06/28 07:03:44;;;;;;;13.18;3.00;;;;;;;;;;5043492;28;20029;-78
2022/06/28 07:06:14;;;;;;;5.85;2.20;;;;;;;;;;5039978;28;20041;-77
2022/06/28 07:08:40;;;;;;;6.72;3.58;;;;;;;;;;5041544;28;20072;-77
2022/06/28 07:11:06;;;;;;;11.82;3.03;;;;;;;;;;5044036;28;20970;-78
2022/06/28 07:13:33;;;;;;;8.77;2.85;;;;;;;;;;5026283;28;20024;-77
2022/06/28 07:16:01;;;;;;;14.18;2.88;;;;;;;;;;5042750;28;20455;-77
2022/06/28 07:18:27;;;;;;;5.50;2.10;;;;;;;;;;5043811;28;20104;-78
2022/06/28 07:20:55;;;;;;;8.30;2.28;;;;;;;;;;5039026;28;20041;-78
2022/06/28 07:23:21;;;;;;;6.22;2.65;;;;;;;;;;5041609;28;20509;-77
2022/06/28 07:25:47;;;;;;;8.18;2.60;;;;;;;;;;5042480;28;20116;-77
2022/06/28 07:28:13;;;;;;;7.80;2.65;;;;;;;;;;5045701;28;20086;-77
2022/06/28 07:30:39;;;;;;;9.25;2.85;;;;;;;;;;5044877;28;20486;-77
2022/06/28 07:33:05;;;;;;;7.20;2.90;;;;;;;;;;5042064;28;20033;-77
2022/06/28 07:35:31;;;;;;;11.13;3.08;;;;;;;;;;5044492;28;20029;-77
2022/06/28 07:37:58;;;;;;;8.25;2.55;;;;;;;;;;5042524;28;20060;-77
2022/06/28 07:40:24;;;;;;;5.38;1.88;;;;;;;;;;5037590;28;20065;-77
2022/06/28 07:42:50;;;;;;;6.90;2.55;;;;;;;;;;5040723;28;20028;-77
2022/06/28 07:45:16;;;;;;;6.32;2.65;;;;;;;;;;5043082;28;20116;-77
2022/06/28 07:47:47;;;;;;;6.30;2.17;;;;;;;;;;5041299;28;20052;-77
2022/06/28 07:53:00;;;;;;;7.75;2.70;;;;;;;;;;5046309;28;20035;-77
2022/06/28 07:55:26;;;;;;;5.15;2.50;;;;;;;;;;5045102;28;20036;-77
2022/06/28 07:57:52;;;;;;;4.75;2.35;;;;;;;;;;5045714;28;20025;-77
2022/06/28 08:00:21;;;;;;;11.07;2.15;;;;;;;;;;5038596;28;20467;-77
2022/06/28 08:02:47;;;;;;;4.45;2.10;;;;;;;;;;5045701;28;20040;-77
2022/06/28 08:05:13;;;;;;;7.25;1.65;;;;;;;;;;5045346;28;20148;-77
2022/06/28 08:07:39;;;;;;;5.10;1.60;;;;;;;;;;5043492;28;20430;-77
2022/06/28 08:10:06;;;;;;;6.40;1.52;;;;;;;;;;5049185;28;20055;-77
2022/06/28 08:12:32;;;;;;;3.72;1.30;;;;;;;;;;5037362;28;20065;-77
2022/06/28 08:14:58;;;;;;;6.10;1.40;;;;;;;;;;5043083;28;20028;-77
2022/06/28 08:17:24;;;;;;;5.15;1.50;;;;;;;;;;5046582;28;20025;-77
2022/06/28 08:19:50;;;;;;;3.97;1.52;;;;;;;;;;5041888;28;20033;-77
2022/06/28 08:22:17;;;;;;;5.82;1.55;;;;;;;;;;5040694;28;20455;-77
2022/06/28 08:24:43;;;;;;;7.00;1.70;;;;;;;;;;5047228;28;20353;-77
2022/06/28 08:27:09;;;;;;;7.15;1.55;;;;;;;;;;5044334;28;20053;-77
2022/06/28 08:29:35;;;;;;;6.82;1.60;;;;;;;;;;5048813;28;20037;-77
2022/06/28 08:32:01;;;;;;;6.22;1.42;;;;;;;;;;5045530;28;20044;-78
2022/06/28 08:34:28;;;;;;;6.75;1.48;;;;;;;;;;5044257;28;20032;-77
2022/06/28 08:36:54;;;;;;;5.13;1.42;;;;;;;;;;5044038;28;20033;-77
2022/06/28 08:39:20;;;;;;;5.15;1.10;;;;;;;;;;5041175;28;20061;-77
2022/06/28 08:41:46;;;;;;;4.80;1.42;;;;;;;;;;5036218;28;20086;-78
2022/06/28 08:44:13;;;;;;;2.90;1.00;;;;;;;;;;5053202;28;20037;-77
2022/06/28 08:46:40;;;;;;;5.00;1.17;;;;;;;;;;5048751;28;20060;-77
2022/06/28 08:49:20;;;;;;;6.15;1.25;;;;;;;;;;5037979;28;20433;-78
2022/06/28 08:51:46;;;;;;;5.47;1.60;;;;;;;;;;5043045;28;20036;-77
2022/06/28 08:54:13;;;;;;;5.05;1.35;;;;;;;;;;5041470;28;20116;-77
2022/06/28 08:56:40;;;;;;;2.90;1.10;;;;;;;;;;5049397;28;20037;-77
2022/06/28 08:59:06;;;;;;;4.90;0.90;;;;;;;;;;5044855;28;20029;-77
2022/06/28 09:01:32;;;;;;;5.45;1.35;;;;;;;;;;5048545;28;20033;-77
2022/06/28 09:04:00;;;;;;;9.13;1.58;;;;;;;;;;5026908;28;20029;-77
2022/06/28 09:06:27;;;;;;;9.07;1.88;;;;;;;;;;5046077;28;20120;-77
2022/06/28 09:08:53;;;;;;;5.18;1.30;;;;;;;;;;5043961;28;20044;-77
2022/06/28 09:11:19;;;;;;;6.43;1.58;;;;;;;;;;5047548;28;20036;-77
2022/06/28 09:13:45;;;;;;;5.15;1.40;;;;;;;;;;5042628;28;20028;-77
2022/06/28 09:16:12;;;;;;;5.22;1.55;;;;;;;;;;5044410;28;20030;-77
2022/06/28 09:18:38;;;;;;;5.63;1.50;;;;;;;;;;5039294;28;20215;-77
2022/06/28 09:21:09;;;;;;;5.07;1.58;;;;;;;;;;5046139;28;20131;-77
2022/06/28 09:23:36;;;;;;;6.63;1.30;;;;;;;;;;5040956;28;20043;-77
2022/06/28 09:26:06;;;;;;;4.95;1.40;;;;;;;;;;5046994;28;20085;-77
2022/06/28 09:28:33;;;;;;;6.85;1.30;;;;;;;;;;5037326;28;20068;-78
2022/06/28 09:31:22;;;;;;;6.45;1.65;;;;;;;;;;5026178;28;20053;-78
2022/06/28 09:33:49;;;;;;;8.15;1.13;;;;;;;;;;5048477;28;20091;-77
2022/06/28 09:36:17;;;;;;;4.32;1.25;;;;;;;;;;5040675;28;20136;-78
2022/06/28 09:38:43;;;;;;;8.65;1.73;;;;;;;;;;5046074;28;20075;-78
2022/06/28 09:41:19;;;;;;;5.28;1.35;;;;;;;;;;5040489;28;20045;-78
2022/06/28 09:43:53;;;;;;;4.13;1.52;;;;;;;;;;5047210;28;20076;-78
2022/06/28 09:46:19;;;;;;;5.50;1.30;;;;;;;;;;5039764;28;20034;-78
2022/06/28 09:48:45;;;;;;;4.28;1.30;;;;;;;;;;5042326;28;20072;-78
2022/06/28 09:51:11;;;;;;;6.10;1.60;;;;;;;;;;5041622;28;20710;-77
2022/06/28 09:53:45;;;;;;;7.50;1.13;;;;;;;;;;5047042;28;20032;-77
2022/06/28 09:56:11;;;;;;;4.65;1.08;;;;;;;;;;5039087;28;20095;-78
2022/06/28 09:58:38;;;;;;;4.45;1.40;;;;;;;;;;5041527;28;20554;-77
2022/06/28 10:01:04;;;;;;;7.70;1.60;;;;;;;;;;5035617;28;20559;-78
2022/06/28 10:03:30;;;;;;;1.80;0.88;;;;;;;;;;5042819;28;20419;-77
2022/06/28 10:05:56;;;;;;;3.08;1.08;;;;;;;;;;5045045;28;20470;-77
2022/06/28 10:08:23;;;;;;;3.28;1.02;;;;;;;;;;5040593;28;20078;-78
2022/06/28 10:10:50;;;;;;;7.07;1.33;;;;;;;;;;5042012;28;20539;-78
2022/06/28 10:16:21;;;;;;;4.13;1.30;;;;;;;;;;5043976;28;20537;-77
2022/06/28 10:18:48;;;;;;;3.38;1.08;;;;;;;;;;5047098;28;20033;-77
2022/06/28 10:21:14;;;;;;;6.07;1.48;;;;;;;;;;5045780;28;20044;-77
2022/06/28 10:23:41;;;;;;;5.93;1.30;;;;;;;;;;5041134;28;20056;-78
2022/06/28 10:26:16;;;;;;;3.78;1.08;;;;;;;;;;5042201;28;20037;-78
2022/06/28 10:28:42;;;;;;;2.63;1.10;;;;;;;;;;5038573;28;20479;-78
2022/06/28 10:31:23;;;;;;;3.45;1.10;;;;;;;;;;5039597;28;20053;-78
2022/06/28 10:33:53;;;;;;;7.35;1.20;;;;;;;;;;5038355;28;20168;-78
2022/06/28 10:36:20;;;;;;;3.50;1.27;;;;;;;;;;5042324;28;20207;-77
2022/06/28 10:39:04;;;;;;;6.50;1.08;;;;;;;;;;5041969;28;20036;-77
2022/06/28 10:41:42;;;;;;;8.48;1.40;;;;;;;;;;5037790;28;20140;-77
2022/06/28 10:44:10;;;;;;;3.70;1.15;;;;;;;;;;5041346;28;20044;-77
2022/06/28 10:46:36;;;;;;;5.40;1.38;;;;;;;;;;5042405;28;20033;-78
2022/06/28 10:49:02;;;;;;;5.53;1.52;;;;;;;;;;5043096;28;20029;-78
2022/06/28 10:51:29;;;;;;;5.97;1.00;;;;;;;;;;5036872;28;20037;-77
2022/06/28 10:53:59;;;;;;;4.60;1.38;;;;;;;;;;5041796;28;20036;-78
2022/06/28 10:56:25;;;;;;;6.30;1.20;;;;;;;;;;5034771;28;20029;-77
2022/06/28 10:59:04;;;;;;;5.68;1.30;;;;;;;;;;5041632;28;20182;-78
2022/06/28 11:01:39;;;;;;;3.00;1.10;;;;;;;;;;5038017;28;20045;-78
2022/06/28 11:04:11;;;;;;;3.45;1.17;;;;;;;;;;5042892;28;20064;-78
2022/06/28 11:06:39;;;;;;;5.65;1.25;;;;;;;;;;5043055;28;20063;-77
2022/06/28 11:09:08;;;;;;;5.38;1.48;;;;;;;;;;5036950;28;20131;-79
2022/06/28 11:11:34;;;;;;;5.57;1.35;;;;;;;;;;5040476;28;20044;-78
2022/06/28 11:14:19;;;;;;;4.90;1.00;;;;;;;;;;5045061;28;20057;-77
2022/06/28 11:16:48;;;;;;;3.97;1.40;;;;;;;;;;5042044;28;20035;-78
2022/06/28 11:19:15;;;;;;;6.53;1.10;;;;;;;;;;5043646;28;20609;-78
2022/06/28 11:21:41;;;;;;;4.20;1.17;;;;;;;;;;5044378;28;20043;-78
2022/06/28 11:24:07;;;;;;;5.25;1.27;;;;;;;;;;5040734;28;20461;-78
2022/06/28 11:29:20;;;;;;;3.88;1.10;;;;;;;;;;5035968;28;20108;-77
2022/06/28 11:31:46;;;;;;;3.85;1.75;;;;;;;;;;5037560;28;20045;-78
2022/06/28 11:34:14;;;;;;;4.47;1.02;;;;;;;;;;5040730;28;20049;-77
2022/06/28 11:36:44;;;;;;;5.88;1.23;;;;;;;;;;5047239;28;20033;-78
2022/06/28 11:39:18;;;;;;;8.82;1.23;;;;;;;;;;5039284;28;20835;-77
2022/06/28 11:41:47;;;;;;;6.75;1.35;;;;;;;;;;5041798;28;20385;-78
2022/06/28 11:44:14;;;;;;;4.80;1.00;;;;;;;;;;5023139;28;20037;-77
2022/06/28 11:46:40;;;;;;;5.57;1.10;;;;;;;;;;5042962;28;20040;-78
2022/06/28 11:49:06;;;;;;;5.75;1.27;;;;;;;;;;5045696;28;20067;-77
2022/06/28 11:51:32;;;;;;;3.30;1.13;;;;;;;;;;5044235;28;20036;-77
2022/06/28 11:53:59;;;;;;;4.95;0.90;;;;;;;;;;5041244;28;20030;-77
2022/06/28 11:56:26;;;;;;;7.95;1.40;;;;;;;;;;5021922;28;20040;-77
2022/06/28 11:58:52;;;;;;;4.70;1.20;;;;;;;;;;5042115;28;20025;-78
2022/06/28 12:01:19;;;;;;;4.80;1.35;;;;;;;;;;5041609;28;20037;-78
2022/06/28 12:03:45;;;;;;;4.40;1.33;;;;;;;;;;5042708;28;20037;-78
2022/06/28 12:06:19;;;;;;;4.68;1.30;;;;;;;;;;5039369;28;20087;-78
2022/06/28 12:08:46;;;;;;;5.25;1.13;;;;;;;;;;5038787;28;20143;-77
2022/06/28 12:11:31;;;;;;;5.70;1.10;;;;;;;;;;5038582;28;20048;-77
2022/06/28 12:13:57;;;;;;;4.50;1.20;;;;;;;;;;5033768;28;20031;-78
2022/06/28 12:16:23;;;;;;;7.35;1.35;;;;;;;;;;5043389;28;20039;-77
2022/06/28 12:18:53;;;;;;;5.43;1.08;;;;;;;;;;5043827;28;20051;-77
2022/06/28 12:21:19;;;;;;;5.82;1.20;;;;;;;;;;5039676;28;20033;-77
2022/06/28 12:23:53;;;;;;;6.03;1.40;;;;;;;;;;5036948;28;20037;-77
2022/06/28 12:26:20;;;;;;;4.45;1.08;;;;;;;;;;5039555;28;20043;-77
2022/06/28 12:28:46;;;;;;;6.15;1.70;;;;;;;;;;5044851;28;20425;-77
2022/06/28 12:31:12;;;;;;;9.95;1.40;;;;;;;;;;5036970;28;20128;-78
2022/06/28 12:33:38;;;;;;;6.72;1.58;;;;;;;;;;5036527;28;20041;-77
2022/06/28 12:36:04;;;;;;;3.80;1.25;;;;;;;;;;5050376;28;20886;-77
2022/06/28 12:38:30;;;;;;;6.80;1.05;;;;;;;;;;5043686;28;20037;-77
2022/06/28 12:40:57;;;;;;;5.03;1.60;;;;;;;;;;5039842;28;20442;-77
2022/06/28 12:43:23;;;;;;;5.07;1.23;;;;;;;;;;5047776;28;20478;-77
2022/06/28 12:45:49;;;;;;;3.00;0.95;;;;;;;;;;5044055;28;20025;-77
2022/06/28 12:48:15;;;;;;;8.70;1.38;;;;;;;;;;5042991;28;20119;-77
2022/06/28 12:50:42;;;;;;;7.28;1.00;;;;;;;;;;5045655;28;20021;-77
2022/06/28 12:53:08;;;;;;;7.95;1.48;;;;;;;;;;5047204;28;20095;-78
2022/06/28 12:55:34;;;;;;;3.35;0.90;;;;;;;;;;5044183;28;20356;-78
2022/06/28 12:58:00;;;;;;;6.85;1.38;;;;;;;;;;5048424;28;20857;-77
2022/06/28 13:00:27;;;;;;;4.78;1.40;;;;;;;;;;5044403;28;20070;-77
2022/06/28 13:02:53;;;;;;;4.68;1.13;;;;;;;;;;5024812;28;20470;-77
2022/06/28 13:05:21;;;;;;;7.13;1.10;;;;;;;;;;5041785;28;20481;-77
2022/06/28 13:07:47;;;;;;;8.90;1.20;;;;;;;;;;5045891;28;20493;-77
2022/06/28 13:10:14;;;;;;;3.13;1.00;;;;;;;;;;5044809;28;20029;-78
2022/06/28 13:12:40;;;;;;;6.35;1.05;;;;;;;;;;5036723;28;20103;-77
2022/06/28 13:15:06;;;;;;;6.30;1.48;;;;;;;;;;5042993;28;20029;-77
2022/06/28 13:17:32;;;;;;;7.72;1.10;;;;;;;;;;5045165;28;20037;-78
2022/06/28 13:19:59;;;;;;;6.03;1.52;;;;;;;;;;5039567;28;20025;-78
2022/06/28 13:22:26;;;;;;;8.07;1.65;;;;;;;;;;5042456;28;20033;-78
2022/06/28 13:24:52;;;;;;;4.88;0.88;;;;;;;;;;5054439;28;20033;-77
2022/06/28 13:27:18;;;;;;;7.20;1.27;;;;;;;;;;5048986;28;20044;-77
2022/06/28 13:29:44;;;;;;;6.28;1.40;;;;;;;;;;5040780;28;20033;-78
2022/06/28 13:32:10;;;;;;;6.43;1.30;;;;;;;;;;5041044;28;20065;-78
2022/06/28 13:34:36;;;;;;;3.72;1.10;;;;;;;;;;5042491;28;20532;-77
2022/06/28 13:37:03;;;;;;;2.95;0.80;;;;;;;;;;5041940;28;20040;-77
2022/06/28 13:39:29;;;;;;;5.78;1.15;;;;;;;;;;5037132;28;20017;-77
2022/06/28 13:41:55;;;;;;;4.57;0.90;;;;;;;;;;5046211;28;20044;-77
2022/06/28 13:44:21;;;;;;;3.30;1.00;;;;;;;;;;5030528;28;20029;-77
2022/06/28 13:46:47;;;;;;;6.65;1.17;;;;;;;;;;5044727;28;20044;-78
2022/06/28 13:49:13;;;;;;;3.80;0.90;;;;;;;;;;5046765;28;20599;-78
2022/06/28 13:51:40;;;;;;;4.78;1.45;;;;;;;;;;5049478;28;20380;-77
2022/06/28 13:54:06;;;;;;;11.02;1.20;;;;;;;;;;5050837;28;20059;-78
2022/06/28 13:56:32;;;;;;;11.60;1.10;;;;;;;;;;5042116;28;20036;-77
2022/06/28 13:58:58;;;;;;;4.00;0.98;;;;;;;;;;5044438;28;20036;-77
2022/06/28 14:01:24;;;;;;;6.97;1.27;;;;;;;;;;5040509;28;20040;-77
2022/06/28 14:03:50;;;;;;;9.30;1.10;;;;;;;;;;5043659;28;20097;-77
2022/06/28 14:06:16;;;;;;;4.38;1.02;;;;;;;;;;5043966;28;20243;-78
2022/06/28 14:08:43;;;;;;;7.57;1.13;;;;;;;;;;5045306;28;20666;-77
2022/06/28 14:11:09;;;;;;;2.80;1.10;;;;;;;;;;5041860;28;20037;-77
2022/06/28 14:13:35;;;;;;;8.25;1.13;;;;;;;;;;5043789;28;20028;-78
2022/06/28 14:16:01;;;;;;;4.32;1.15;;;;;;;;;;5040612;28;20033;-77
2022/06/28 14:18:27;;;;;;;7.10;1.67;;;;;;;;;;5035667;28;20044;-77
2022/06/28 14:20:53;;;;;;;2.97;1.02;;;;;;;;;;5047571;28;20036;-77
2022/06/28 14:23:19;;;;;;;3.08;1.00;;;;;;;;;;5040986;28;20702;-77
2022/06/28 14:25:45;;;;;;;6.78;1.17;;;;;;;;;;5043783;28;20034;-77
2022/06/28 14:28:11;;;;;;;4.32;1.00;;;;;;;;;;5042994;28;20402;-77
2022/06/28 14:30:38;;;;;;;4.70;1.10;;;;;;;;;;5021554;28;20052;-77
2022/06/28 14:33:04;;;;;;;4.90;1.20;;;;;;;;;;5039845;28;20493;-78
2022/06/28 14:35:34;;;;;;;6.57;1.33;;;;;;;;;;5024943;28;20028;-77
2022/06/28 14:38:00;;;;;;;3.33;0.90;;;;;;;;;;5040688;28;20033;-77
2022/06/28 14:40:26;;;;;;;5.82;1.25;;;;;;;;;;5046551;28;20135;-77
2022/06/28 14:42:52;;;;;;;5.10;1.27;;;;;;;;;;5041944;28;20779;-77
2022/06/28 14:45:18;;;;;;;4.97;1.13;;;;;;;;;;5042413;28;20038;-77
2022/06/28 14:47:49;;;;;;;4.32;1.10;;;;;;;;;;5045092;28;20053;-77
2022/06/28 14:50:15;;;;;;;8.73;1.42;;;;;;;;;;5037359;28;20036;-77
2022/06/28 14:52:41;;;;;;;6.22;1.02;;;;;;;;;;5045337;28;20040;-77
2022/06/28 14:55:07;;;;;;;4.38;1.10;;;;;;;;;;5045160;28;20040;-77